Terminal Aerodrome Forecast
Issued by NWS

Home | Current Version | Previous Version | Text Only | Print | Product List | Glossary On
Versions: 1 2 3 4 5 6 7 8 9 10 11 12 13
000
FTUS46 KSEW 292300
TAFOLM
TAF
KOLM 292326Z 3000/3024 35008KT P6SM SKC
     FM300200 VRB02KT P6SM SKC
     FM301200 VRB02KT 6SM BR BKN008
     FM301700 VRB03KT P6SM SCT012
     FM302000 36006KT P6SM SKC=

USA.gov is the U.S. government's official web portal to all federal, state and local government web resources and services.